sensor_id;sensor_type;location;lat;lon;timestamp;P1;durP1;ratioP1;P2;durP2;ratioP2
77409;SDS011;66481;51.332;22.804;2024-03-23T00:54:06;42.28;;;22.20;;
77409;SDS011;66481;51.332;22.804;2024-03-23T00:58:07;44.50;;;21.63;;
77409;SDS011;66481;51.332;22.804;2024-03-23T01:02:09;37.35;;;20.80;;
77409;SDS011;66481;51.332;22.804;2024-03-23T01:06:10;36.35;;;18.85;;
77409;SDS011;66481;51.332;22.804;2024-03-23T01:10:11;37.95;;;19.33;;
77409;SDS011;66481;51.332;22.804;2024-03-23T01:14:12;39.10;;;19.25;;
77409;SDS011;66481;51.332;22.804;2024-03-23T01:18:13;35.38;;;20.02;;
77409;SDS011;66481;51.332;22.804;2024-03-23T01:22:14;37.30;;;20.63;;
77409;SDS011;66481;51.332;22.804;2024-03-23T01:26:16;40.03;;;18.73;;
77409;SDS011;66481;51.332;22.804;2024-03-23T01:30:17;36.30;;;19.48;;
77409;SDS011;66481;51.332;22.804;2024-03-23T01:34:18;36.00;;;18.38;;
77409;SDS011;66481;51.332;22.804;2024-03-23T01:38:21;38.97;;;20.23;;
77409;SDS011;66481;51.332;22.804;2024-03-23T01:42:22;41.80;;;20.35;;
77409;SDS011;66481;51.332;22.804;2024-03-23T01:46:23;39.88;;;19.17;;
77409;SDS011;66481;51.332;22.804;2024-03-23T01:50:24;37.67;;;19.10;;
77409;SDS011;66481;51.332;22.804;2024-03-23T01:54:33;39.47;;;19.50;;
77409;SDS011;66481;51.332;22.804;2024-03-23T01:58:37;36.95;;;19.10;;
77409;SDS011;66481;51.332;22.804;2024-03-23T02:02:44;38.38;;;21.08;;
77409;SDS011;66481;51.332;22.804;2024-03-23T02:06:46;43.78;;;21.30;;
77409;SDS011;66481;51.332;22.804;2024-03-23T02:10:47;40.38;;;20.77;;
77409;SDS011;66481;51.332;22.804;2024-03-23T02:14:50;37.83;;;18.60;;
77409;SDS011;66481;51.332;22.804;2024-03-23T02:18:51;38.15;;;20.33;;
77409;SDS011;66481;51.332;22.804;2024-03-23T02:22:55;42.92;;;19.77;;
77409;SDS011;66481;51.332;22.804;2024-03-23T02:26:56;40.65;;;20.73;;
77409;SDS011;66481;51.332;22.804;2024-03-23T02:30:57;42.28;;;20.90;;
77409;SDS011;66481;51.332;22.804;2024-03-23T02:34:59;37.40;;;19.38;;
77409;SDS011;66481;51.332;22.804;2024-03-23T02:39:00;35.10;;;18.85;;
77409;SDS011;66481;51.332;22.804;2024-03-23T02:43:02;44.47;;;21.95;;
77409;SDS011;66481;51.332;22.804;2024-03-23T02:47:04;37.72;;;21.50;;
77409;SDS011;66481;51.332;22.804;2024-03-23T02:51:05;43.30;;;22.83;;
77409;SDS011;66481;51.332;22.804;2024-03-23T02:55:07;43.65;;;19.95;;
77409;SDS011;66481;51.332;22.804;2024-03-23T02:59:09;37.13;;;19.05;;
77409;SDS011;66481;51.332;22.804;2024-03-23T03:03:10;43.95;;;21.25;;
77409;SDS011;66481;51.332;22.804;2024-03-23T03:07:11;38.60;;;19.33;;
77409;SDS011;66481;51.332;22.804;2024-03-23T03:11:12;39.83;;;20.33;;
77409;SDS011;66481;51.332;22.804;2024-03-23T03:15:13;40.95;;;21.65;;
77409;SDS011;66481;51.332;22.804;2024-03-23T03:19:15;40.85;;;20.73;;
77409;SDS011;66481;51.332;22.804;2024-03-23T03:23:17;42.05;;;22.15;;
77409;SDS011;66481;51.332;22.804;2024-03-23T03:27:20;43.22;;;22.30;;
77409;SDS011;66481;51.332;22.804;2024-03-23T03:31:21;43.55;;;21.25;;
77409;SDS011;66481;51.332;22.804;2024-03-23T03:35:22;44.65;;;22.58;;
77409;SDS011;66481;51.332;22.804;2024-03-23T03:39:24;47.33;;;24.10;;
77409;SDS011;66481;51.332;22.804;2024-03-23T03:43:25;45.70;;;23.35;;
77409;SDS011;66481;51.332;22.804;2024-03-23T03:47:26;51.90;;;25.77;;
77409;SDS011;66481;51.332;22.804;2024-03-23T03:51:27;53.65;;;25.98;;
77409;SDS011;66481;51.332;22.804;2024-03-23T03:55:28;53.47;;;26.23;;
77409;SDS011;66481;51.332;22.804;2024-03-23T03:59:29;56.45;;;25.65;;
77409;SDS011;66481;51.332;22.804;2024-03-23T04:03:30;54.97;;;27.02;;
77409;SDS011;66481;51.332;22.804;2024-03-23T04:11:35;53.88;;;26.20;;
77409;SDS011;66481;51.332;22.804;2024-03-23T04:15:36;50.72;;;23.83;;
77409;SDS011;66481;51.332;22.804;2024-03-23T04:19:38;56.20;;;27.67;;
77409;SDS011;66481;51.332;22.804;2024-03-23T04:23:40;56.38;;;27.75;;
77409;SDS011;66481;51.332;22.804;2024-03-23T04:27:41;55.20;;;25.67;;
77409;SDS011;66481;51.332;22.804;2024-03-23T04:31:42;59.08;;;27.25;;
77409;SDS011;66481;51.332;22.804;2024-03-23T04:35:44;57.50;;;27.35;;
77409;SDS011;66481;51.332;22.804;2024-03-23T04:39:45;52.88;;;26.15;;
77409;SDS011;66481;51.332;22.804;2024-03-23T04:43:46;54.28;;;26.15;;
77409;SDS011;66481;51.332;22.804;2024-03-23T04:47:47;59.20;;;28.35;;
77409;SDS011;66481;51.332;22.804;2024-03-23T04:51:49;63.28;;;28.10;;
77409;SDS011;66481;51.332;22.804;2024-03-23T04:55:50;54.80;;;25.85;;
77409;SDS011;66481;51.332;22.804;2024-03-23T04:59:51;57.13;;;26.42;;
77409;SDS011;66481;51.332;22.804;2024-03-23T05:03:52;53.50;;;27.30;;
77409;SDS011;66481;51.332;22.804;2024-03-23T05:07:53;60.17;;;26.88;;
77409;SDS011;66481;51.332;22.804;2024-03-23T05:11:55;60.92;;;28.20;;
77409;SDS011;66481;51.332;22.804;2024-03-23T05:15:57;56.03;;;26.92;;
77409;SDS011;66481;51.332;22.804;2024-03-23T05:19:59;63.35;;;30.33;;
77409;SDS011;66481;51.332;22.804;2024-03-23T05:24:01;62.30;;;28.45;;
77409;SDS011;66481;51.332;22.804;2024-03-23T05:28:03;54.75;;;26.55;;
77409;SDS011;66481;51.332;22.804;2024-03-23T05:32:04;64.75;;;30.30;;
77409;SDS011;66481;51.332;22.804;2024-03-23T05:36:06;58.55;;;27.48;;
77409;SDS011;66481;51.332;22.804;2024-03-23T05:40:12;61.50;;;30.77;;
77409;SDS011;66481;51.332;22.804;2024-03-23T05:44:16;61.67;;;30.10;;
77409;SDS011;66481;51.332;22.804;2024-03-23T05:48:17;68.05;;;32.95;;
77409;SDS011;66481;51.332;22.804;2024-03-23T05:52:21;54.17;;;27.70;;
77409;SDS011;66481;51.332;22.804;2024-03-23T05:56:22;60.17;;;28.65;;
77409;SDS011;66481;51.332;22.804;2024-03-23T06:00:23;62.40;;;30.23;;
77409;SDS011;66481;51.332;22.804;2024-03-23T06:08:28;63.22;;;29.95;;
77409;SDS011;66481;51.332;22.804;2024-03-23T06:12:29;52.97;;;26.70;;
77409;SDS011;66481;51.332;22.804;2024-03-23T06:16:30;54.05;;;24.73;;
77409;SDS011;66481;51.332;22.804;2024-03-23T06:20:31;56.25;;;26.88;;
77409;SDS011;66481;51.332;22.804;2024-03-23T06:24:33;56.90;;;27.63;;
77409;SDS011;66481;51.332;22.804;2024-03-23T06:28:35;49.45;;;24.85;;
77409;SDS011;66481;51.332;22.804;2024-03-23T06:32:36;57.42;;;26.55;;
77409;SDS011;66481;51.332;22.804;2024-03-23T06:36:38;50.35;;;23.73;;
77409;SDS011;66481;51.332;22.804;2024-03-23T06:40:40;54.35;;;25.58;;
77409;SDS011;66481;51.332;22.804;2024-03-23T06:44:41;51.83;;;25.70;;
77409;SDS011;66481;51.332;22.804;2024-03-23T06:48:44;49.50;;;24.60;;
77409;SDS011;66481;51.332;22.804;2024-03-23T06:52:47;48.40;;;23.83;;
77409;SDS011;66481;51.332;22.804;2024-03-23T06:56:48;44.58;;;23.33;;
77409;SDS011;66481;51.332;22.804;2024-03-23T07:00:49;50.15;;;23.00;;
77409;SDS011;66481;51.332;22.804;2024-03-23T07:04:51;39.67;;;21.50;;
77409;SDS011;66481;51.332;22.804;2024-03-23T07:08:52;44.60;;;22.83;;
77409;SDS011;66481;51.332;22.804;2024-03-23T07:12:53;39.22;;;21.75;;
77409;SDS011;66481;51.332;22.804;2024-03-23T07:16:55;42.05;;;20.45;;
77409;SDS011;66481;51.332;22.804;2024-03-23T07:20:56;38.47;;;17.88;;
77409;SDS011;66481;51.332;22.804;2024-03-23T07:25:01;33.20;;;17.63;;
77409;SDS011;66481;51.332;22.804;2024-03-23T07:29:06;31.40;;;16.35;;
77409;SDS011;66481;51.332;22.804;2024-03-23T07:33:07;33.95;;;16.33;;
77409;SDS011;66481;51.332;22.804;2024-03-23T07:37:09;28.42;;;14.95;;
77409;SDS011;66481;51.332;22.804;2024-03-23T07:45:18;25.35;;;12.88;;
77409;SDS011;66481;51.332;22.804;2024-03-23T07:49:19;20.75;;;12.48;;
77409;SDS011;66481;51.332;22.804;2024-03-23T07:53:21;25.60;;;13.18;;
77409;SDS011;66481;51.332;22.804;2024-03-23T07:57:22;28.75;;;15.20;;
77409;SDS011;66481;51.332;22.804;2024-03-23T08:01:23;23.70;;;11.75;;
77409;SDS011;66481;51.332;22.804;2024-03-23T08:05:25;23.80;;;13.02;;
77409;SDS011;66481;51.332;22.804;2024-03-23T08:09:28;24.95;;;13.43;;
77409;SDS011;66481;51.332;22.804;2024-03-23T08:17:35;24.35;;;13.27;;
77409;SDS011;66481;51.332;22.804;2024-03-23T08:21:36;20.70;;;11.18;;
77409;SDS011;66481;51.332;22.804;2024-03-23T08:25:38;22.42;;;12.43;;
77409;SDS011;66481;51.332;22.804;2024-03-23T08:29:39;22.85;;;12.50;;
77409;SDS011;66481;51.332;22.804;2024-03-23T08:33:41;25.48;;;14.20;;
77409;SDS011;66481;51.332;22.804;2024-03-23T08:41:46;22.40;;;12.30;;
77409;SDS011;66481;51.332;22.804;2024-03-23T08:45:48;26.02;;;13.93;;
77409;SDS011;66481;51.332;22.804;2024-03-23T08:49:49;22.77;;;12.50;;
77409;SDS011;66481;51.332;22.804;2024-03-23T08:53:51;20.13;;;12.38;;
77409;SDS011;66481;51.332;22.804;2024-03-23T08:57:52;20.60;;;12.27;;
77409;SDS011;66481;51.332;22.804;2024-03-23T09:01:54;18.55;;;11.80;;
77409;SDS011;66481;51.332;22.804;2024-03-23T09:05:55;27.85;;;14.75;;
77409;SDS011;66481;51.332;22.804;2024-03-23T09:09:56;26.00;;;13.38;;
77409;SDS011;66481;51.332;22.804;2024-03-23T09:13:58;24.60;;;12.75;;
77409;SDS011;66481;51.332;22.804;2024-03-23T09:17:59;22.20;;;13.27;;
77409;SDS011;66481;51.332;22.804;2024-03-23T09:22:01;21.30;;;13.18;;
77409;SDS011;66481;51.332;22.804;2024-03-23T09:26:05;24.70;;;14.98;;
77409;SDS011;66481;51.332;22.804;2024-03-23T09:30:08;21.73;;;11.13;;
77409;SDS011;66481;51.332;22.804;2024-03-23T09:34:10;22.88;;;12.15;;
77409;SDS011;66481;51.332;22.804;2024-03-23T09:38:14;21.88;;;13.00;;
77409;SDS011;66481;51.332;22.804;2024-03-23T09:42:15;21.80;;;11.93;;
77409;SDS011;66481;51.332;22.804;2024-03-23T09:46:19;22.17;;;12.95;;
77409;SDS011;66481;51.332;22.804;2024-03-23T09:50:21;25.08;;;12.65;;
77409;SDS011;66481;51.332;22.804;2024-03-23T09:54:23;24.05;;;12.27;;
77409;SDS011;66481;51.332;22.804;2024-03-23T09:58:24;21.67;;;12.18;;
77409;SDS011;66481;51.332;22.804;2024-03-23T10:02:26;21.58;;;11.82;;
77409;SDS011;66481;51.332;22.804;2024-03-23T10:06:29;23.13;;;12.50;;
77409;SDS011;66481;51.332;22.804;2024-03-23T10:10:31;22.67;;;12.15;;
77409;SDS011;66481;51.332;22.804;2024-03-23T10:14:35;20.73;;;11.95;;
77409;SDS011;66481;51.332;22.804;2024-03-23T10:18:38;19.15;;;10.43;;
77409;SDS011;66481;51.332;22.804;2024-03-23T10:22:44;19.02;;;10.55;;
77409;SDS011;66481;51.332;22.804;2024-03-23T10:26:46;23.13;;;10.60;;
77409;SDS011;66481;51.332;22.804;2024-03-23T10:30:57;26.05;;;13.20;;
77409;SDS011;66481;51.332;22.804;2024-03-23T10:35:19;22.58;;;11.68;;
77409;SDS011;66481;51.332;22.804;2024-03-23T10:39:25;23.65;;;12.75;;
77409;SDS011;66481;51.332;22.804;2024-03-23T10:43:26;21.17;;;12.30;;
77409;SDS011;66481;51.332;22.804;2024-03-23T10:47:28;17.42;;;11.32;;
77409;SDS011;66481;51.332;22.804;2024-03-23T10:51:30;19.20;;;10.15;;
77409;SDS011;66481;51.332;22.804;2024-03-23T10:55:31;19.83;;;11.75;;
77409;SDS011;66481;51.332;22.804;2024-03-23T10:59:35;18.85;;;10.15;;
77409;SDS011;66481;51.332;22.804;2024-03-23T11:03:40;18.38;;;11.90;;
77409;SDS011;66481;51.332;22.804;2024-03-23T11:07:50;18.20;;;10.77;;
77409;SDS011;66481;51.332;22.804;2024-03-23T11:11:52;16.95;;;10.20;;
77409;SDS011;66481;51.332;22.804;2024-03-23T11:15:53;16.08;;;9.10;;
77409;SDS011;66481;51.332;22.804;2024-03-23T11:20:02;19.45;;;10.00;;
77409;SDS011;66481;51.332;22.804;2024-03-23T11:24:19;18.10;;;10.93;;
77409;SDS011;66481;51.332;22.804;2024-03-23T11:28:21;18.38;;;10.15;;
77409;SDS011;66481;51.332;22.804;2024-03-23T11:32:22;18.40;;;10.88;;
77409;SDS011;66481;51.332;22.804;2024-03-23T11:36:25;15.80;;;10.50;;
77409;SDS011;66481;51.332;22.804;2024-03-23T11:40:26;22.48;;;11.25;;
77409;SDS011;66481;51.332;22.804;2024-03-23T11:44:27;17.58;;;9.93;;
77409;SDS011;66481;51.332;22.804;2024-03-23T11:48:29;16.75;;;9.48;;
77409;SDS011;66481;51.332;22.804;2024-03-23T11:52:32;14.82;;;8.63;;
77409;SDS011;66481;51.332;22.804;2024-03-23T11:56:39;15.73;;;10.73;;
77409;SDS011;66481;51.332;22.804;2024-03-23T12:00:57;17.58;;;9.68;;
77409;SDS011;66481;51.332;22.804;2024-03-23T12:05:13;16.67;;;9.55;;
77409;SDS011;66481;51.332;22.804;2024-03-23T12:09:15;17.55;;;10.13;;
77409;SDS011;66481;51.332;22.804;2024-03-23T12:13:19;16.88;;;10.80;;
77409;SDS011;66481;51.332;22.804;2024-03-23T12:17:21;17.98;;;10.95;;
77409;SDS011;66481;51.332;22.804;2024-03-23T12:25:26;16.50;;;10.27;;
77409;SDS011;66481;51.332;22.804;2024-03-23T12:29:31;14.98;;;9.65;;
77409;SDS011;66481;51.332;22.804;2024-03-23T12:33:33;15.13;;;9.57;;
77409;SDS011;66481;51.332;22.804;2024-03-23T12:37:34;16.35;;;10.85;;
77409;SDS011;66481;51.332;22.804;2024-03-23T12:41:35;15.07;;;9.50;;
77409;SDS011;66481;51.332;22.804;2024-03-23T12:45:37;14.40;;;9.50;;
77409;SDS011;66481;51.332;22.804;2024-03-23T12:49:39;14.38;;;8.93;;
77409;SDS011;66481;51.332;22.804;2024-03-23T12:53:40;17.95;;;10.00;;
77409;SDS011;66481;51.332;22.804;2024-03-23T12:57:41;16.08;;;10.20;;
77409;SDS011;66481;51.332;22.804;2024-03-23T13:01:42;13.35;;;9.25;;
77409;SDS011;66481;51.332;22.804;2024-03-23T13:05:55;14.13;;;10.38;;
77409;SDS011;66481;51.332;22.804;2024-03-23T13:09:56;17.65;;;10.30;;
77409;SDS011;66481;51.332;22.804;2024-03-23T13:13:58;13.00;;;9.10;;
77409;SDS011;66481;51.332;22.804;2024-03-23T13:17:59;15.85;;;10.70;;
77409;SDS011;66481;51.332;22.804;2024-03-23T13:22:00;16.58;;;10.68;;
77409;SDS011;66481;51.332;22.804;2024-03-23T13:26:02;15.20;;;10.30;;
77409;SDS011;66481;51.332;22.804;2024-03-23T13:30:06;16.35;;;9.73;;
77409;SDS011;66481;51.332;22.804;2024-03-23T13:34:08;14.05;;;9.25;;
77409;SDS011;66481;51.332;22.804;2024-03-23T13:38:09;15.73;;;10.32;;
77409;SDS011;66481;51.332;22.804;2024-03-23T13:42:10;15.93;;;10.55;;
77409;SDS011;66481;51.332;22.804;2024-03-23T13:46:13;15.25;;;9.20;;
77409;SDS011;66481;51.332;22.804;2024-03-23T13:50:14;16.33;;;10.88;;
77409;SDS011;66481;51.332;22.804;2024-03-23T13:54:16;14.40;;;9.98;;
77409;SDS011;66481;51.332;22.804;2024-03-23T13:58:18;13.65;;;9.38;;
77409;SDS011;66481;51.332;22.804;2024-03-23T14:02:19;17.02;;;10.75;;
77409;SDS011;66481;51.332;22.804;2024-03-23T14:06:20;14.65;;;10.23;;
77409;SDS011;66481;51.332;22.804;2024-03-23T14:10:22;15.27;;;9.57;;
77409;SDS011;66481;51.332;22.804;2024-03-23T14:14:23;13.95;;;9.18;;
77409;SDS011;66481;51.332;22.804;2024-03-23T14:18:30;16.25;;;9.82;;
77409;SDS011;66481;51.332;22.804;2024-03-23T14:22:31;14.77;;;9.10;;
77409;SDS011;66481;51.332;22.804;2024-03-23T14:26:33;11.88;;;8.25;;
77409;SDS011;66481;51.332;22.804;2024-03-23T14:30:34;11.18;;;8.15;;
77409;SDS011;66481;51.332;22.804;2024-03-23T14:34:35;12.25;;;8.93;;
77409;SDS011;66481;51.332;22.804;2024-03-23T14:38:37;13.15;;;8.48;;
77409;SDS011;66481;51.332;22.804;2024-03-23T14:42:39;13.32;;;8.90;;
77409;SDS011;66481;51.332;22.804;2024-03-23T14:46:43;12.82;;;8.82;;
77409;SDS011;66481;51.332;22.804;2024-03-23T14:50:44;12.13;;;7.10;;
77409;SDS011;66481;51.332;22.804;2024-03-23T14:54:47;11.98;;;7.93;;
77409;SDS011;66481;51.332;22.804;2024-03-23T14:58:52;15.65;;;10.75;;
77409;SDS011;66481;51.332;22.804;2024-03-23T15:02:53;14.50;;;9.05;;
77409;SDS011;66481;51.332;22.804;2024-03-23T15:06:55;15.75;;;10.00;;
77409;SDS011;66481;51.332;22.804;2024-03-23T15:11:02;14.75;;;9.20;;
77409;SDS011;66481;51.332;22.804;2024-03-23T15:15:06;13.48;;;8.95;;
77409;SDS011;66481;51.332;22.804;2024-03-23T15:19:08;13.27;;;8.93;;
77409;SDS011;66481;51.332;22.804;2024-03-23T15:23:11;13.68;;;8.57;;
77409;SDS011;66481;51.332;22.804;2024-03-23T15:27:13;13.55;;;10.55;;
77409;SDS011;66481;51.332;22.804;2024-03-23T15:31:14;13.45;;;9.60;;
77409;SDS011;66481;51.332;22.804;2024-03-23T15:35:16;14.48;;;9.30;;
77409;SDS011;66481;51.332;22.804;2024-03-23T15:39:18;14.63;;;8.90;;
77409;SDS011;66481;51.332;22.804;2024-03-23T15:43:22;12.85;;;8.88;;
77409;SDS011;66481;51.332;22.804;2024-03-23T15:47:25;16.50;;;10.68;;
77409;SDS011;66481;51.332;22.804;2024-03-23T15:51:27;16.45;;;10.07;;
77409;SDS011;66481;51.332;22.804;2024-03-23T15:55:33;14.48;;;8.80;;
77409;SDS011;66481;51.332;22.804;2024-03-23T15:59:40;15.57;;;10.15;;
77409;SDS011;66481;51.332;22.804;2024-03-23T16:03:42;18.25;;;9.60;;
77409;SDS011;66481;51.332;22.804;2024-03-23T16:07:44;13.88;;;8.93;;
77409;SDS011;66481;51.332;22.804;2024-03-23T16:11:45;22.00;;;14.45;;
77409;SDS011;66481;51.332;22.804;2024-03-23T16:15:54;14.48;;;9.88;;
77409;SDS011;66481;51.332;22.804;2024-03-23T16:19:58;15.35;;;10.02;;
77409;SDS011;66481;51.332;22.804;2024-03-23T16:24:00;12.82;;;8.63;;
77409;SDS011;66481;51.332;22.804;2024-03-23T16:28:02;13.82;;;8.73;;
77409;SDS011;66481;51.332;22.804;2024-03-23T16:32:05;14.32;;;10.02;;
77409;SDS011;66481;51.332;22.804;2024-03-23T16:36:08;16.55;;;10.00;;
77409;SDS011;66481;51.332;22.804;2024-03-23T16:44:13;17.75;;;10.52;;
77409;SDS011;66481;51.332;22.804;2024-03-23T16:48:16;19.95;;;11.77;;
77409;SDS011;66481;51.332;22.804;2024-03-23T16:52:18;17.85;;;11.25;;
77409;SDS011;66481;51.332;22.804;2024-03-23T16:56:19;15.70;;;11.10;;
77409;SDS011;66481;51.332;22.804;2024-03-23T17:00:21;15.93;;;11.65;;
77409;SDS011;66481;51.332;22.804;2024-03-23T17:04:22;19.17;;;11.90;;
77409;SDS011;66481;51.332;22.804;2024-03-23T17:08:24;15.18;;;9.52;;
77409;SDS011;66481;51.332;22.804;2024-03-23T17:12:26;15.38;;;9.63;;
77409;SDS011;66481;51.332;22.804;2024-03-23T17:16:30;17.05;;;10.15;;
77409;SDS011;66481;51.332;22.804;2024-03-23T17:20:32;16.77;;;10.70;;
77409;SDS011;66481;51.332;22.804;2024-03-23T17:24:34;14.52;;;9.48;;
77409;SDS011;66481;51.332;22.804;2024-03-23T17:28:37;13.13;;;8.88;;
77409;SDS011;66481;51.332;22.804;2024-03-23T17:32:41;15.75;;;10.02;;
77409;SDS011;66481;51.332;22.804;2024-03-23T17:36:44;17.02;;;9.27;;
77409;SDS011;66481;51.332;22.804;2024-03-23T17:40:45;12.35;;;8.55;;
77409;SDS011;66481;51.332;22.804;2024-03-23T17:44:51;12.77;;;8.15;;
77409;SDS011;66481;51.332;22.804;2024-03-23T17:48:52;12.10;;;7.28;;
77409;SDS011;66481;51.332;22.804;2024-03-23T17:52:57;11.05;;;5.78;;
77409;SDS011;66481;51.332;22.804;2024-03-23T17:57:02;10.65;;;4.88;;
77409;SDS011;66481;51.332;22.804;2024-03-23T18:01:07;8.52;;;4.35;;
77409;SDS011;66481;51.332;22.804;2024-03-23T18:05:09;5.22;;;3.20;;
77409;SDS011;66481;51.332;22.804;2024-03-23T18:09:11;7.78;;;4.07;;
77409;SDS011;66481;51.332;22.804;2024-03-23T18:13:14;8.43;;;5.00;;
77409;SDS011;66481;51.332;22.804;2024-03-23T18:17:18;11.57;;;5.75;;
77409;SDS011;66481;51.332;22.804;2024-03-23T18:21:22;8.15;;;5.07;;
77409;SDS011;66481;51.332;22.804;2024-03-23T18:25:24;10.32;;;6.22;;
77409;SDS011;66481;51.332;22.804;2024-03-23T18:29:26;7.82;;;4.60;;
77409;SDS011;66481;51.332;22.804;2024-03-23T18:33:32;7.90;;;5.20;;
77409;SDS011;66481;51.332;22.804;2024-03-23T18:37:36;8.70;;;5.40;;
77409;SDS011;66481;51.332;22.804;2024-03-23T18:41:37;8.57;;;5.13;;
77409;SDS011;66481;51.332;22.804;2024-03-23T18:45:46;6.85;;;4.32;;
77409;SDS011;66481;51.332;22.804;2024-03-23T18:49:51;7.57;;;5.18;;
77409;SDS011;66481;51.332;22.804;2024-03-23T18:53:53;7.82;;;4.80;;
77409;SDS011;66481;51.332;22.804;2024-03-23T18:57:55;7.05;;;4.70;;
77409;SDS011;66481;51.332;22.804;2024-03-23T19:01:59;8.38;;;4.70;;
77409;SDS011;66481;51.332;22.804;2024-03-23T19:06:01;10.18;;;5.63;;
77409;SDS011;66481;51.332;22.804;2024-03-23T19:10:04;8.63;;;5.05;;
77409;SDS011;66481;51.332;22.804;2024-03-23T19:14:07;16.15;;;8.02;;
77409;SDS011;66481;51.332;22.804;2024-03-23T19:18:08;14.27;;;8.10;;
77409;SDS011;66481;51.332;22.804;2024-03-23T19:22:10;12.63;;;7.05;;
77409;SDS011;66481;51.332;22.804;2024-03-23T19:26:11;11.98;;;6.93;;
77409;SDS011;66481;51.332;22.804;2024-03-23T19:30:13;7.88;;;6.15;;
77409;SDS011;66481;51.332;22.804;2024-03-23T19:34:17;9.32;;;6.30;;
77409;SDS011;66481;51.332;22.804;2024-03-23T19:38:18;8.85;;;5.65;;
77409;SDS011;66481;51.332;22.804;2024-03-23T19:42:20;11.90;;;5.75;;
77409;SDS011;66481;51.332;22.804;2024-03-23T19:46:23;11.20;;;5.82;;
77409;SDS011;66481;51.332;22.804;2024-03-23T19:50:26;8.20;;;5.43;;
77409;SDS011;66481;51.332;22.804;2024-03-23T19:54:28;9.98;;;6.95;;
77409;SDS011;66481;51.332;22.804;2024-03-23T19:58:34;10.18;;;6.10;;
77409;SDS011;66481;51.332;22.804;2024-03-23T20:02:36;12.18;;;6.70;;
77409;SDS011;66481;51.332;22.804;2024-03-23T20:06:39;9.80;;;7.03;;
77409;SDS011;66481;51.332;22.804;2024-03-23T20:10:45;13.10;;;7.50;;
77409;SDS011;66481;51.332;22.804;2024-03-23T20:14:48;14.07;;;7.72;;
77409;SDS011;66481;51.332;22.804;2024-03-23T20:18:53;8.13;;;5.22;;
77409;SDS011;66481;51.332;22.804;2024-03-23T20:22:55;5.78;;;2.95;;
77409;SDS011;66481;51.332;22.804;2024-03-23T20:27:00;5.30;;;3.38;;
77409;SDS011;66481;51.332;22.804;2024-03-23T20:31:04;5.45;;;3.10;;
77409;SDS011;66481;51.332;22.804;2024-03-23T20:35:06;6.70;;;3.85;;
77409;SDS011;66481;51.332;22.804;2024-03-23T20:39:10;3.95;;;2.75;;
77409;SDS011;66481;51.332;22.804;2024-03-23T20:43:11;5.43;;;3.88;;
77409;SDS011;66481;51.332;22.804;2024-03-23T20:47:15;5.38;;;3.95;;
77409;SDS011;66481;51.332;22.804;2024-03-23T20:51:17;8.95;;;5.25;;
77409;SDS011;66481;51.332;22.804;2024-03-23T20:55:22;8.73;;;5.53;;
77409;SDS011;66481;51.332;22.804;2024-03-23T20:59:24;7.30;;;5.13;;
77409;SDS011;66481;51.332;22.804;2024-03-23T21:03:26;9.23;;;5.32;;
77409;SDS011;66481;51.332;22.804;2024-03-23T21:07:28;5.80;;;4.45;;
77409;SDS011;66481;51.332;22.804;2024-03-23T21:11:30;6.43;;;4.85;;
77409;SDS011;66481;51.332;22.804;2024-03-23T21:15:32;6.18;;;4.53;;
77409;SDS011;66481;51.332;22.804;2024-03-23T21:19:35;6.95;;;4.60;;
77409;SDS011;66481;51.332;22.804;2024-03-23T21:23:37;5.30;;;3.90;;
77409;SDS011;66481;51.332;22.804;2024-03-23T21:27:40;6.15;;;3.75;;
77409;SDS011;66481;51.332;22.804;2024-03-23T21:31:41;5.43;;;3.40;;
77409;SDS011;66481;51.332;22.804;2024-03-23T21:35:44;5.15;;;3.25;;
77409;SDS011;66481;51.332;22.804;2024-03-23T21:39:45;4.20;;;2.60;;
77409;SDS011;66481;51.332;22.804;2024-03-23T21:43:47;6.93;;;3.92;;
77409;SDS011;66481;51.332;22.804;2024-03-23T21:47:51;4.22;;;3.22;;
77409;SDS011;66481;51.332;22.804;2024-03-23T21:51:59;3.63;;;2.90;;
77409;SDS011;66481;51.332;22.804;2024-03-23T21:56:02;3.55;;;3.05;;
77409;SDS011;66481;51.332;22.804;2024-03-23T22:00:04;4.60;;;2.83;;
77409;SDS011;66481;51.332;22.804;2024-03-23T22:04:09;3.55;;;2.92;;
77409;SDS011;66481;51.332;22.804;2024-03-23T22:08:11;3.95;;;2.90;;
77409;SDS011;66481;51.332;22.804;2024-03-23T22:12:14;4.03;;;3.20;;
77409;SDS011;66481;51.332;22.804;2024-03-23T22:16:15;4.85;;;3.60;;
77409;SDS011;66481;51.332;22.804;2024-03-23T22:20:16;8.13;;;4.47;;
77409;SDS011;66481;51.332;22.804;2024-03-23T22:24:18;6.22;;;3.95;;
77409;SDS011;66481;51.332;22.804;2024-03-23T22:28:20;5.95;;;3.85;;
77409;SDS011;66481;51.332;22.804;2024-03-23T22:32:22;6.75;;;4.38;;
77409;SDS011;66481;51.332;22.804;2024-03-23T22:36:24;6.85;;;4.25;;
77409;SDS011;66481;51.332;22.804;2024-03-23T22:40:26;10.88;;;5.32;;
77409;SDS011;66481;51.332;22.804;2024-03-23T22:44:29;10.63;;;6.60;;
77409;SDS011;66481;51.332;22.804;2024-03-23T22:48:33;10.57;;;6.47;;
77409;SDS011;66481;51.332;22.804;2024-03-23T22:52:36;10.77;;;6.47;;
77409;SDS011;66481;51.332;22.804;2024-03-23T22:56:37;10.93;;;7.25;;
77409;SDS011;66481;51.332;22.804;2024-03-23T23:00:42;14.73;;;7.47;;
77409;SDS011;66481;51.332;22.804;2024-03-23T23:04:44;11.35;;;6.38;;
77409;SDS011;66481;51.332;22.804;2024-03-23T23:12:52;7.75;;;4.38;;
77409;SDS011;66481;51.332;22.804;2024-03-23T23:16:54;7.18;;;4.45;;
77409;SDS011;66481;51.332;22.804;2024-03-23T23:21:01;7.43;;;3.88;;
77409;SDS011;66481;51.332;22.804;2024-03-23T23:25:03;4.47;;;3.20;;
77409;SDS011;66481;51.332;22.804;2024-03-23T23:29:05;5.20;;;3.55;;
77409;SDS011;66481;51.332;22.804;2024-03-23T23:33:06;5.13;;;3.13;;
77409;SDS011;66481;51.332;22.804;2024-03-23T23:37:07;3.40;;;3.10;;
77409;SDS011;66481;51.332;22.804;2024-03-23T23:41:09;3.15;;;2.63;;
77409;SDS011;66481;51.332;22.804;2024-03-23T23:45:11;4.80;;;2.58;;
77409;SDS011;66481;51.332;22.804;2024-03-23T23:49:13;3.95;;;2.55;;
77409;SDS011;66481;51.332;22.804;2024-03-23T23:53:14;3.88;;;2.65;;
77409;SDS011;66481;51.332;22.804;2024-03-23T23:57:16;8.00;;;2.70;;
